Time;durP1;ratioP1;P1;durP2;ratioP2;P2;SDS_P1;SDS_P2;PMS_P1;PMS_P2;Temp;Humidity;BMP_temperature;BMP_pressure;BME280_temperature;BME280_humidity;BME280_pressure;Samples;Min_cycle;Max_cycle;Signal;HPM_P1;HPM_P2
2023/07/16 00:01:03;;;;;;;537.78;305.30;;;;;;;;;;5022856;28;20542;-69
2023/07/16 00:03:31;;;;;;;553.03;345.80;;;;;;;;;;5029725;28;20431;-70
2023/07/16 00:05:59;;;;;;;549.72;331.40;;;;;;;;;;5029132;28;20932;-70
2023/07/16 00:08:29;;;;;;;551.72;344.17;;;;;;;;;;5027261;28;20830;-70
2023/07/16 00:10:56;;;;;;;554.20;350.33;;;;;;;;;;5029057;28;20429;-71
2023/07/16 00:13:23;;;;;;;553.10;339.02;;;;;;;;;;5007754;28;20432;-70
2023/07/16 00:15:52;;;;;;;559.73;352.47;;;;;;;;;;5027324;28;21137;-70
2023/07/16 00:18:19;;;;;;;561.70;360.20;;;;;;;;;;5026428;28;20442;-70
2023/07/16 00:20:54;;;;;;;564.53;369.63;;;;;;;;;;5027989;28;20430;-70
2023/07/16 00:23:21;;;;;;;565.97;367.27;;;;;;;;;;5027667;28;20422;-70
2023/07/16 00:25:50;;;;;;;571.30;375.95;;;;;;;;;;5021716;28;20493;-71
2023/07/16 00:28:18;;;;;;;574.97;375.55;;;;;;;;;;5024038;28;20429;-70
2023/07/16 00:30:45;;;;;;;574.57;378.80;;;;;;;;;;5025729;28;20421;-69
2023/07/16 00:33:14;;;;;;;572.05;368.95;;;;;;;;;;5030656;28;21459;-70
2023/07/16 00:35:48;;;;;;;572.85;369.48;;;;;;;;;;5024254;28;20504;-69
2023/07/16 00:38:18;;;;;;;570.63;365.50;;;;;;;;;;5026407;28;20443;-70
2023/07/16 00:40:45;;;;;;;573.33;371.97;;;;;;;;;;5007363;28;21083;-70
2023/07/16 00:43:12;;;;;;;576.38;370.38;;;;;;;;;;5021448;28;20427;-70
2023/07/16 00:45:40;;;;;;;579.17;375.23;;;;;;;;;;5023216;28;20431;-69
2023/07/16 00:48:13;;;;;;;580.80;377.25;;;;;;;;;;5025724;28;20489;-70
2023/07/16 00:50:41;;;;;;;578.58;368.10;;;;;;;;;;5020613;28;20449;-69
2023/07/16 00:53:12;;;;;;;575.38;359.10;;;;;;;;;;5024523;28;20503;-70
2023/07/16 00:55:39;;;;;;;580.72;370.73;;;;;;;;;;5013122;28;20449;-69
2023/07/16 00:58:07;;;;;;;582.88;377.42;;;;;;;;;;5038640;28;20429;-69
2023/07/16 01:00:36;;;;;;;576.63;365.70;;;;;;;;;;5017435;28;20485;-71
2023/07/16 01:03:04;;;;;;;558.83;331.75;;;;;;;;;;5029203;28;20439;-69
2023/07/16 01:05:44;;;;;;;547.58;305.38;;;;;;;;;;5009093;28;20525;-70
2023/07/16 01:08:12;;;;;;;564.67;322.05;;;;;;;;;;5025253;28;20434;-70
2023/07/16 01:10:40;;;;;;;575.42;338.65;;;;;;;;;;5034478;28;20932;-70
2023/07/16 01:13:07;;;;;;;577.20;345.02;;;;;;;;;;5024172;28;20433;-70
2023/07/16 01:15:34;;;;;;;579.70;350.98;;;;;;;;;;5026512;28;20945;-69
2023/07/16 01:18:01;;;;;;;584.22;360.35;;;;;;;;;;5019731;28;20427;-70
2023/07/16 01:20:29;;;;;;;584.92;354.65;;;;;;;;;;5029798;28;20437;-70
2023/07/16 01:23:06;;;;;;;584.15;357.67;;;;;;;;;;5027388;28;20441;-69
2023/07/16 01:25:42;;;;;;;587.58;351.30;;;;;;;;;;5028482;28;20439;-69
2023/07/16 01:28:19;;;;;;;601.05;381.13;;;;;;;;;;5027337;28;20462;-68
2023/07/16 01:30:48;;;;;;;591.65;356.98;;;;;;;;;;5040500;28;20458;-67
2023/07/16 01:33:16;;;;;;;591.28;356.88;;;;;;;;;;5016353;28;20456;-68
2023/07/16 01:35:44;;;;;;;583.75;349.13;;;;;;;;;;5022192;28;20434;-69
2023/07/16 01:38:18;;;;;;;583.50;344.37;;;;;;;;;;5024654;28;20433;-67
2023/07/16 01:40:46;;;;;;;580.10;331.17;;;;;;;;;;5020806;28;20494;-68
2023/07/16 01:43:13;;;;;;;577.50;329.83;;;;;;;;;;5027213;28;20851;-68
2023/07/16 01:45:40;;;;;;;582.17;336.63;;;;;;;;;;5017168;28;20469;-68
2023/07/16 01:48:26;;;;;;;581.80;338.35;;;;;;;;;;5034038;28;20524;-68
2023/07/16 01:50:54;;;;;;;579.10;329.80;;;;;;;;;;5030072;28;20829;-68
2023/07/16 01:53:23;;;;;;;591.45;324.30;;;;;;;;;;5029355;28;20434;-68
2023/07/16 01:55:51;;;;;;;595.90;355.20;;;;;;;;;;5045464;28;20826;-67
2023/07/16 01:58:22;;;;;;;603.67;354.35;;;;;;;;;;5037764;28;20488;-67
2023/07/16 02:00:50;;;;;;;623.65;382.40;;;;;;;;;;5014370;28;20436;-67
2023/07/16 02:03:17;;;;;;;626.67;382.10;;;;;;;;;;5030875;28;20933;-68
2023/07/16 02:05:45;;;;;;;627.17;389.13;;;;;;;;;;5027967;28;20437;-67
2023/07/16 02:08:12;;;;;;;614.90;373.17;;;;;;;;;;5030628;28;20496;-67
2023/07/16 02:10:39;;;;;;;627.63;377.58;;;;;;;;;;5039781;28;20433;-67
2023/07/16 02:13:06;;;;;;;627.78;388.20;;;;;;;;;;5036146;28;20842;-66
2023/07/16 02:15:36;;;;;;;622.03;390.30;;;;;;;;;;5026001;28;21344;-67
2023/07/16 02:18:04;;;;;;;625.15;400.52;;;;;;;;;;5030969;28;20435;-67
2023/07/16 02:20:34;;;;;;;615.08;382.85;;;;;;;;;;5027674;28;20430;-67
2023/07/16 02:23:01;;;;;;;608.20;372.70;;;;;;;;;;5032130;28;20436;-67
2023/07/16 02:25:29;;;;;;;595.38;373.85;;;;;;;;;;5023334;28;20439;-67
2023/07/16 02:27:56;;;;;;;603.40;375.05;;;;;;;;;;5026383;28;20427;-67
2023/07/16 02:30:23;;;;;;;634.65;416.75;;;;;;;;;;5016162;28;21074;-67
2023/07/16 02:32:50;;;;;;;620.93;409.90;;;;;;;;;;5039176;28;20459;-67
2023/07/16 02:35:21;;;;;;;623.53;417.10;;;;;;;;;;5027584;28;20461;-67
2023/07/16 02:37:48;;;;;;;632.05;402.60;;;;;;;;;;5028171;28;20429;-67
2023/07/16 02:40:15;;;;;;;650.92;429.00;;;;;;;;;;5031061;28;21087;-67
2023/07/16 02:42:45;;;;;;;660.72;458.05;;;;;;;;;;5029888;28;20522;-67
2023/07/16 02:45:18;;;;;;;680.43;475.70;;;;;;;;;;5030599;28;20460;-67
2023/07/16 02:47:46;;;;;;;703.80;503.13;;;;;;;;;;5024957;28;20852;-67
2023/07/16 02:50:13;;;;;;;708.92;510.55;;;;;;;;;;5024589;28;20451;-67
2023/07/16 02:52:42;;;;;;;703.72;508.80;;;;;;;;;;5030792;28;20504;-67
2023/07/16 02:55:10;;;;;;;694.65;501.60;;;;;;;;;;5024272;28;20763;-67
2023/07/16 02:57:37;;;;;;;694.70;500.58;;;;;;;;;;5030354;28;20431;-68
2023/07/16 03:00:04;;;;;;;689.80;495.42;;;;;;;;;;5025316;28;20474;-67
2023/07/16 03:02:31;;;;;;;685.92;486.70;;;;;;;;;;5028249;28;20833;-66
2023/07/16 03:04:59;;;;;;;678.95;479.08;;;;;;;;;;5024206;28;20468;-67
2023/07/16 03:07:26;;;;;;;674.20;478.10;;;;;;;;;;5025794;28;20570;-67
2023/07/16 03:09:53;;;;;;;673.97;476.88;;;;;;;;;;5031175;28;20427;-67
2023/07/16 03:12:20;;;;;;;676.25;481.75;;;;;;;;;;5031972;28;20440;-68
2023/07/16 03:14:48;;;;;;;680.72;484.50;;;;;;;;;;5035753;28;20501;-68
2023/07/16 03:17:15;;;;;;;679.47;477.80;;;;;;;;;;5024574;28;20505;-68
2023/07/16 03:19:42;;;;;;;656.30;450.67;;;;;;;;;;5023717;28;20454;-67
2023/07/16 03:22:09;;;;;;;674.15;470.77;;;;;;;;;;5028177;28;20489;-67
2023/07/16 03:24:36;;;;;;;671.42;462.50;;;;;;;;;;5027691;28;20479;-67
2023/07/16 03:27:04;;;;;;;658.58;448.58;;;;;;;;;;5028992;28;20435;-67
2023/07/16 03:29:44;;;;;;;624.72;413.77;;;;;;;;;;5026071;28;20514;-67
2023/07/16 03:32:11;;;;;;;623.37;414.90;;;;;;;;;;5027700;28;20996;-67
2023/07/16 03:34:38;;;;;;;610.25;396.23;;;;;;;;;;5022302;28;20435;-67
2023/07/16 03:37:06;;;;;;;616.85;406.27;;;;;;;;;;5024445;28;20923;-67
2023/07/16 03:39:33;;;;;;;634.45;412.48;;;;;;;;;;5024199;28;20423;-67
2023/07/16 03:42:00;;;;;;;656.38;441.27;;;;;;;;;;5015441;28;20425;-67
2023/07/16 03:44:27;;;;;;;665.70;446.80;;;;;;;;;;5022760;28;20435;-67
2023/07/16 03:46:54;;;;;;;679.15;462.35;;;;;;;;;;5023876;28;20491;-67
2023/07/16 03:49:22;;;;;;;682.38;465.92;;;;;;;;;;5022225;28;20431;-67
2023/07/16 03:51:49;;;;;;;670.92;454.67;;;;;;;;;;5027859;28;20468;-67
2023/07/16 03:54:16;;;;;;;689.80;479.58;;;;;;;;;;5022353;28;20829;-67
2023/07/16 03:56:46;;;;;;;687.47;473.45;;;;;;;;;;5025800;28;20467;-66
2023/07/16 03:59:16;;;;;;;694.35;481.80;;;;;;;;;;5024956;28;20570;-67
2023/07/16 04:01:43;;;;;;;587.85;526.10;;;;;;;;;;5039719;28;20437;-67
2023/07/16 04:04:10;;;;;;;710.17;499.80;;;;;;;;;;5027277;28;20530;-67
2023/07/16 04:06:41;;;;;;;699.80;485.60;;;;;;;;;;5027876;28;20925;-68
2023/07/16 04:09:08;;;;;;;709.80;495.42;;;;;;;;;;5027238;28;20437;-66
2023/07/16 04:11:35;;;;;;;706.97;496.10;;;;;;;;;;5039242;28;20530;-67
2023/07/16 04:14:05;;;;;;;709.53;496.87;;;;;;;;;;5025575;28;20921;-66
2023/07/16 04:16:33;;;;;;;718.72;508.38;;;;;;;;;;5023208;28;20435;-66
2023/07/16 04:19:00;;;;;;;714.67;504.55;;;;;;;;;;5025007;28;20434;-67
2023/07/16 04:21:27;;;;;;;717.80;505.15;;;;;;;;;;5027996;28;20490;-67
2023/07/16 04:23:54;;;;;;;718.72;510.45;;;;;;;;;;5024035;28;20430;-67
2023/07/16 04:26:21;;;;;;;717.15;504.58;;;;;;;;;;5040436;28;20519;-67
2023/07/16 04:28:49;;;;;;;712.25;500.88;;;;;;;;;;5023680;28;20431;-67
2023/07/16 04:31:19;;;;;;;708.25;498.42;;;;;;;;;;5023168;28;20435;-67
2023/07/16 04:33:46;;;;;;;709.80;503.70;;;;;;;;;;5026259;28;20466;-67
2023/07/16 04:36:13;;;;;;;711.93;503.10;;;;;;;;;;5023738;28;20488;-67
2023/07/16 04:38:43;;;;;;;716.00;505.83;;;;;;;;;;5029639;28;20431;-67
2023/07/16 04:41:12;;;;;;;719.35;512.53;;;;;;;;;;5023684;28;20488;-67
2023/07/16 04:43:48;;;;;;;735.97;527.17;;;;;;;;;;5010316;28;20868;-67
2023/07/16 04:46:16;;;;;;;715.95;514.28;;;;;;;;;;5012896;28;20455;-67
2023/07/16 04:48:46;;;;;;;772.58;564.92;;;;;;;;;;5035861;28;20443;-66
2023/07/16 04:51:13;;;;;;;815.78;606.25;;;;;;;;;;5027110;28;20923;-66
2023/07/16 04:53:40;;;;;;;844.13;624.00;;;;;;;;;;5031014;28;20907;-65
2023/07/16 04:56:15;;;;;;;866.35;639.33;;;;;;;;;;5010389;28;20470;-66
2023/07/16 04:58:42;;;;;;;879.50;643.10;;;;;;;;;;5002938;28;21237;-67
2023/07/16 05:01:10;;;;;;;903.72;655.28;;;;;;;;;;5021407;28;20485;-67
2023/07/16 05:03:37;;;;;;;934.42;692.30;;;;;;;;;;5006429;28;20529;-67
2023/07/16 05:06:05;;;;;;;902.75;667.20;;;;;;;;;;5024389;28;20946;-67
2023/07/16 05:08:32;;;;;;;902.08;675.90;;;;;;;;;;5020559;28;20435;-67
2023/07/16 05:11:00;;;;;;;922.72;686.67;;;;;;;;;;5025535;28;20463;-66
2023/07/16 05:13:30;;;;;;;916.17;690.53;;;;;;;;;;5028365;28;20597;-67
2023/07/16 05:15:59;;;;;;;928.75;719.90;;;;;;;;;;5026068;28;20917;-67
2023/07/16 05:18:27;;;;;;;930.70;719.80;;;;;;;;;;5024591;28;20461;-66
2023/07/16 05:20:54;;;;;;;931.83;717.53;;;;;;;;;;5031716;28;20430;-68
2023/07/16 05:23:22;;;;;;;937.73;725.23;;;;;;;;;;5028292;28;20530;-68
2023/07/16 05:25:50;;;;;;;939.30;730.60;;;;;;;;;;5003433;28;20431;-67
2023/07/16 05:28:18;;;;;;;954.90;743.60;;;;;;;;;;5036563;28;20470;-68
2023/07/16 05:30:45;;;;;;;945.03;738.37;;;;;;;;;;5014355;28;20517;-68
2023/07/16 05:33:13;;;;;;;928.90;726.42;;;;;;;;;;5010211;28;20505;-67
2023/07/16 05:35:40;;;;;;;926.78;716.97;;;;;;;;;;5018354;28;21002;-68
2023/07/16 05:38:07;;;;;;;956.17;748.10;;;;;;;;;;5025694;28;20513;-68
2023/07/16 05:40:38;;;;;;;969.20;763.27;;;;;;;;;;5021872;28;20522;-68
2023/07/16 05:43:05;;;;;;;960.42;755.83;;;;;;;;;;5025823;28;20935;-67
2023/07/16 05:45:32;;;;;;;968.53;766.25;;;;;;;;;;5031206;28;20426;-66
2023/07/16 05:47:59;;;;;;;949.55;745.33;;;;;;;;;;5034793;28;20435;-67
2023/07/16 05:50:29;;;;;;;948.92;748.97;;;;;;;;;;5025469;28;20532;-67
2023/07/16 05:52:57;;;;;;;967.55;767.38;;;;;;;;;;5026513;28;20435;-67
2023/07/16 05:55:24;;;;;;;976.42;782.17;;;;;;;;;;5008303;28;20432;-67
2023/07/16 05:57:51;;;;;;;963.60;767.38;;;;;;;;;;5018811;28;20456;-65
2023/07/16 06:00:19;;;;;;;958.45;767.58;;;;;;;;;;5028509;28;20435;-66
2023/07/16 06:02:46;;;;;;;950.50;758.83;;;;;;;;;;5031210;28;20435;-66
2023/07/16 06:05:25;;;;;;;952.30;761.43;;;;;;;;;;5024685;28;20471;-67
2023/07/16 06:07:53;;;;;;;948.37;758.17;;;;;;;;;;5023378;28;20447;-67
2023/07/16 06:10:20;;;;;;;963.92;773.10;;;;;;;;;;5023213;28;20438;-66
2023/07/16 06:12:47;;;;;;;948.45;757.20;;;;;;;;;;5023155;28;20427;-66
2023/07/16 06:15:14;;;;;;;955.70;768.53;;;;;;;;;;5022332;28;20423;-66
2023/07/16 06:17:41;;;;;;;949.33;767.80;;;;;;;;;;5023138;28;20432;-67
2023/07/16 06:20:09;;;;;;;951.15;768.72;;;;;;;;;;5025041;28;20430;-66
2023/07/16 06:22:37;;;;;;;957.78;775.60;;;;;;;;;;5028435;28;20446;-65
2023/07/16 06:25:04;;;;;;;960.85;779.85;;;;;;;;;;5028689;28;20518;-66
2023/07/16 06:27:31;;;;;;;972.65;790.55;;;;;;;;;;5023027;28;20982;-66
2023/07/16 06:29:59;;;;;;;973.10;796.83;;;;;;;;;;5020123;28;20458;-65
2023/07/16 06:32:28;;;;;;;978.10;801.83;;;;;;;;;;5024737;28;20478;-64
2023/07/16 06:34:55;;;;;;;980.47;802.60;;;;;;;;;;5029211;28;20881;-65
2023/07/16 06:37:23;;;;;;;985.13;810.53;;;;;;;;;;5026117;28;20434;-64
2023/07/16 06:39:51;;;;;;;994.05;818.67;;;;;;;;;;5024878;28;20427;-65
2023/07/16 06:42:18;;;;;;;997.50;820.45;;;;;;;;;;5008913;28;20475;-64
2023/07/16 06:44:45;;;;;;;825.53;751.35;;;;;;;;;;5019072;28;20462;-65
2023/07/16 06:47:15;;;;;;;965.10;862.75;;;;;;;;;;5027760;28;21559;-65
2023/07/16 06:49:43;;;;;;;973.72;867.72;;;;;;;;;;5008107;28;20446;-66
2023/07/16 06:52:19;;;;;;;1008.00;851.05;;;;;;;;;;5024660;28;20433;-65
2023/07/16 06:54:46;;;;;;;978.35;848.15;;;;;;;;;;5024784;28;20489;-65
2023/07/16 06:57:13;;;;;;;986.30;837.17;;;;;;;;;;5029024;28;20458;-65
2023/07/16 06:59:41;;;;;;;946.90;844.47;;;;;;;;;;5030916;28;20431;-65
2023/07/16 07:02:08;;;;;;;1006.08;829.80;;;;;;;;;;5029063;28;20435;-65
2023/07/16 07:04:35;;;;;;;974.00;838.83;;;;;;;;;;5026176;28;20434;-69
2023/07/16 07:07:04;;;;;;;970.45;840.53;;;;;;;;;;5017843;28;21075;-65
2023/07/16 07:09:31;;;;;;;969.90;849.17;;;;;;;;;;5022406;28;20435;-65
2023/07/16 07:11:58;;;;;;;992.30;840.85;;;;;;;;;;5035218;28;20440;-65
2023/07/16 07:14:29;;;;;;;1007.95;833.38;;;;;;;;;;5029546;28;21110;-65
2023/07/16 07:16:58;;;;;;;980.38;873.50;;;;;;;;;;5021763;28;20435;-65
2023/07/16 07:19:25;;;;;;;995.03;873.00;;;;;;;;;;5024585;28;20428;-65
2023/07/16 07:21:53;;;;;;;1014.90;854.00;;;;;;;;;;5031720;28;20458;-65
2023/07/16 07:24:20;;;;;;;1010.05;847.10;;;;;;;;;;5029206;28;20443;-64
2023/07/16 07:26:48;;;;;;;1019.17;855.53;;;;;;;;;;5022260;28;20462;-65
2023/07/16 07:29:17;;;;;;;1022.78;860.63;;;;;;;;;;5008220;28;21128;-65
2023/07/16 07:31:44;;;;;;;1023.38;864.38;;;;;;;;;;5038740;28;20427;-65
2023/07/16 07:34:12;;;;;;;1023.92;864.95;;;;;;;;;;5023278;28;20427;-65
2023/07/16 07:36:42;;;;;;;1027.60;863.13;;;;;;;;;;5019207;28;20480;-66
2023/07/16 07:39:10;;;;;;;979.13;874.22;;;;;;;;;;5024212;28;20423;-65
2023/07/16 07:41:38;;;;;;;1016.05;856.83;;;;;;;;;;5027055;28;21018;-67
2023/07/16 07:44:05;;;;;;;1016.72;858.10;;;;;;;;;;5026633;28;20423;-64
2023/07/16 07:46:35;;;;;;;1010.20;845.40;;;;;;;;;;5024293;28;20435;-64
2023/07/16 07:49:02;;;;;;;1018.83;856.20;;;;;;;;;;5024298;28;20925;-64
2023/07/16 07:51:29;;;;;;;1015.90;852.90;;;;;;;;;;5031199;28;20470;-64
2023/07/16 07:54:00;;;;;;;1012.23;844.03;;;;;;;;;;5024818;28;20437;-68
2023/07/16 07:56:27;;;;;;;998.63;841.40;;;;;;;;;;5022792;28;20430;-65
2023/07/16 07:58:57;;;;;;;993.27;844.03;;;;;;;;;;5030274;28;20432;-64
2023/07/16 08:01:24;;;;;;;1014.47;851.58;;;;;;;;;;5024337;28;20431;-64
2023/07/16 08:03:55;;;;;;;1016.42;854.97;;;;;;;;;;5021133;28;21095;-64
2023/07/16 08:06:22;;;;;;;1017.42;859.38;;;;;;;;;;5005119;28;20520;-65
2023/07/16 08:08:49;;;;;;;1027.03;873.73;;;;;;;;;;5022655;28;20513;-64
2023/07/16 08:11:22;;;;;;;1019.88;868.28;;;;;;;;;;5027134;28;20439;-64
2023/07/16 08:13:50;;;;;;;1018.05;865.33;;;;;;;;;;5005510;28;20469;-64
2023/07/16 08:16:17;;;;;;;1020.33;865.42;;;;;;;;;;5020476;28;20441;-64
2023/07/16 08:18:44;;;;;;;1015.55;862.20;;;;;;;;;;5023009;28;20848;-65
2023/07/16 08:21:19;;;;;;;999.33;841.45;;;;;;;;;;5009828;28;20438;-64
2023/07/16 08:23:49;;;;;;;1000.93;838.70;;;;;;;;;;5024149;28;20795;-64
2023/07/16 08:26:17;;;;;;;1016.25;856.88;;;;;;;;;;5027286;28;20443;-64
2023/07/16 08:28:45;;;;;;;1017.17;854.30;;;;;;;;;;5019671;28;20436;-64
2023/07/16 08:31:15;;;;;;;1018.30;861.45;;;;;;;;;;5026926;28;20431;-64
2023/07/16 08:33:42;;;;;;;1020.63;863.03;;;;;;;;;;5025623;28;20484;-64
2023/07/16 08:36:12;;;;;;;1021.00;863.83;;;;;;;;;;5024968;28;20431;-64
2023/07/16 08:38:43;;;;;;;1021.70;870.03;;;;;;;;;;5024071;28;20426;-63
2023/07/16 08:41:10;;;;;;;998.38;889.25;;;;;;;;;;5026715;28;20429;-64
2023/07/16 08:43:38;;;;;;;999.72;895.70;;;;;;;;;;5023649;28;20426;-64
2023/07/16 08:46:06;;;;;;;998.85;898.78;;;;;;;;;;5023896;28;20821;-64
2023/07/16 08:48:34;;;;;;;980.08;888.53;;;;;;;;;;5028436;28;21001;-63
2023/07/16 08:51:02;;;;;;;981.72;884.40;;;;;;;;;;5022802;28;20466;-64
2023/07/16 08:53:30;;;;;;;970.53;874.23;;;;;;;;;;5019463;28;20438;-64
2023/07/16 08:56:04;;;;;;;962.10;863.90;;;;;;;;;;5022039;28;20442;-63
2023/07/16 08:58:31;;;;;;;636.28;577.10;;;;;;;;;;5023186;28;20502;-63
2023/07/16 09:01:00;;;;;;;823.55;751.70;;;;;;;;;;5021125;28;20435;-64
2023/07/16 09:03:29;;;;;;;861.53;787.53;;;;;;;;;;5024518;28;20431;-63
2023/07/16 09:05:59;;;;;;;904.45;826.92;;;;;;;;;;5021231;28;20440;-63
2023/07/16 09:08:28;;;;;;;949.72;868.28;;;;;;;;;;5018132;28;20469;-63
2023/07/16 09:10:56;;;;;;;968.67;870.80;;;;;;;;;;5025554;28;20856;-64
2023/07/16 09:13:27;;;;;;;991.92;874.92;;;;;;;;;;5013629;28;20433;-63
2023/07/16 09:15:55;;;;;;;1023.05;881.67;;;;;;;;;;5023294;28;20424;-63
2023/07/16 09:18:28;;;;;;;952.73;865.13;;;;;;;;;;5022132;28;20431;-63
2023/07/16 09:20:56;;;;;;;989.90;890.60;;;;;;;;;;5020283;28;20479;-63
2023/07/16 09:23:25;;;;;;;1008.10;902.28;;;;;;;;;;5025294;28;20430;-64
2023/07/16 09:25:52;;;;;;;981.55;889.67;;;;;;;;;;5022816;28;20441;-64
2023/07/16 09:28:20;;;;;;;981.60;895.47;;;;;;;;;;5022628;28;20438;-63
2023/07/16 09:30:48;;;;;;;574.40;519.67;;;;;;;;;;5024172;28;20499;-63
2023/07/16 09:33:17;;;;;;;763.55;695.08;;;;;;;;;;5024425;28;20474;-63
2023/07/16 09:35:44;;;;;;;953.40;869.55;;;;;;;;;;5024393;28;20441;-64
2023/07/16 09:38:12;;;;;;;947.90;861.60;;;;;;;;;;5026334;28;20449;-64
2023/07/16 09:40:43;;;;;;;1002.00;892.70;;;;;;;;;;5025672;28;20519;-63
2023/07/16 09:43:11;;;;;;;984.90;887.17;;;;;;;;;;5006240;28;20521;-63
2023/07/16 09:45:38;;;;;;;1011.63;903.85;;;;;;;;;;5023413;28;20869;-65
2023/07/16 09:48:06;;;;;;;1010.00;902.03;;;;;;;;;;5019376;28;20932;-65
2023/07/16 09:50:34;;;;;;;1020.73;892.73;;;;;;;;;;5024750;28;20435;-65
2023/07/16 09:53:07;;;;;;;1040.28;905.08;;;;;;;;;;5021629;28;20435;-65
2023/07/16 09:55:35;;;;;;;1031.85;897.13;;;;;;;;;;5017965;28;20424;-64
2023/07/16 09:58:06;;;;;;;995.58;875.08;;;;;;;;;;5002452;28;21004;-65
2023/07/16 10:00:34;;;;;;;1011.42;856.55;;;;;;;;;;5016304;28;20470;-66
2023/07/16 10:03:02;;;;;;;986.53;852.45;;;;;;;;;;5023278;28;20515;-66
2023/07/16 10:05:29;;;;;;;970.75;866.50;;;;;;;;;;5027483;28;20517;-65
2023/07/16 10:08:00;;;;;;;965.13;864.13;;;;;;;;;;5019669;28;20484;-65
2023/07/16 10:10:39;;;;;;;1016.25;857.42;;;;;;;;;;5008190;28;20538;-65
2023/07/16 10:13:08;;;;;;;1008.03;848.85;;;;;;;;;;5026226;28;20505;-66
2023/07/16 10:15:37;;;;;;;1009.90;841.90;;;;;;;;;;5023540;28;20992;-65
2023/07/16 10:18:04;;;;;;;1007.25;839.90;;;;;;;;;;5006231;28;20519;-65
2023/07/16 10:20:42;;;;;;;1003.00;830.85;;;;;;;;;;5028050;28;20506;-65
2023/07/16 10:23:13;;;;;;;989.65;811.78;;;;;;;;;;5017671;28;20441;-65
2023/07/16 10:26:05;;;;;;;1001.22;827.47;;;;;;;;;;5021878;28;20447;-65
2023/07/16 10:28:33;;;;;;;998.93;828.43;;;;;;;;;;5024485;28;20534;-65
2023/07/16 10:31:01;;;;;;;1006.10;840.75;;;;;;;;;;5018593;28;20489;-66
2023/07/16 10:33:28;;;;;;;993.17;851.95;;;;;;;;;;5026067;28;20435;-65
2023/07/16 10:36:00;;;;;;;1006.88;864.13;;;;;;;;;;5023040;28;20434;-65
2023/07/16 10:38:27;;;;;;;1012.65;877.95;;;;;;;;;;5025205;28;20445;-66
2023/07/16 10:40:56;;;;;;;1036.25;892.35;;;;;;;;;;5029890;28;20433;-66
2023/07/16 10:43:24;;;;;;;1026.28;885.17;;;;;;;;;;5029803;28;20963;-65
2023/07/16 10:45:51;;;;;;;1037.32;895.75;;;;;;;;;;5025244;28;20518;-70
2023/07/16 10:48:25;;;;;;;1029.25;885.03;;;;;;;;;;5005830;28;20466;-70
2023/07/16 10:50:54;;;;;;;1027.03;882.10;;;;;;;;;;5021617;28;20432;-70
2023/07/16 10:53:22;;;;;;;1027.30;877.67;;;;;;;;;;5002321;28;20431;-69
2023/07/16 10:55:49;;;;;;;1010.10;898.67;;;;;;;;;;5026789;28;20493;-67
2023/07/16 10:58:16;;;;;;;1028.95;893.65;;;;;;;;;;5019670;28;21104;-69
2023/07/16 11:00:45;;;;;;;919.22;834.17;;;;;;;;;;5031471;28;20435;-66
2023/07/16 11:03:16;;;;;;;983.30;873.33;;;;;;;;;;5025111;28;20427;-66
2023/07/16 11:05:50;;;;;;;1004.53;852.17;;;;;;;;;;5008371;28;20438;-70
2023/07/16 11:08:24;;;;;;;1022.88;871.90;;;;;;;;;;5018934;28;21386;-71
2023/07/16 11:10:58;;;;;;;1009.80;855.13;;;;;;;;;;5024425;28;20462;-68
2023/07/16 11:13:26;;;;;;;1016.15;862.13;;;;;;;;;;5024185;28;20431;-67
2023/07/16 11:15:53;;;;;;;1012.95;861.63;;;;;;;;;;5022038;28;20510;-69
2023/07/16 11:18:23;;;;;;;1009.50;898.27;;;;;;;;;;5021395;28;20470;-69
2023/07/16 11:20:53;;;;;;;1029.05;883.20;;;;;;;;;;5023702;28;20517;-69
2023/07/16 11:23:21;;;;;;;1024.82;884.88;;;;;;;;;;5025262;28;20792;-70
2023/07/16 11:25:49;;;;;;;1019.10;876.00;;;;;;;;;;5011090;28;20430;-70
2023/07/16 11:28:16;;;;;;;1018.63;871.35;;;;;;;;;;5026174;28;20983;-69
2023/07/16 11:30:43;;;;;;;1022.78;878.47;;;;;;;;;;5026194;28;20440;-72
2023/07/16 11:33:11;;;;;;;1023.17;881.10;;;;;;;;;;5034487;28;20491;-71
2023/07/16 11:35:40;;;;;;;1026.90;882.90;;;;;;;;;;5030502;28;20529;-69
2023/07/16 11:38:07;;;;;;;1033.40;891.35;;;;;;;;;;5021592;28;20435;-71
2023/07/16 11:40:35;;;;;;;1022.65;881.75;;;;;;;;;;5034347;28;20958;-73
2023/07/16 11:43:10;;;;;;;1027.93;891.83;;;;;;;;;;5031115;28;20431;-71
2023/07/16 11:45:38;;;;;;;1030.97;893.63;;;;;;;;;;5026275;28;20438;-71
2023/07/16 11:48:05;;;;;;;1016.70;908.60;;;;;;;;;;5023075;28;20426;-70
2023/07/16 11:50:35;;;;;;;1045.32;920.53;;;;;;;;;;5012433;28;20435;-71
2023/07/16 11:53:03;;;;;;;1037.63;924.33;;;;;;;;;;5028978;28;20427;-71
2023/07/16 11:55:30;;;;;;;1033.60;904.13;;;;;;;;;;5024561;28;20446;-68
2023/07/16 11:57:59;;;;;;;1034.78;901.58;;;;;;;;;;5026739;28;20893;-70
2023/07/16 12:00:26;;;;;;;1030.78;910.40;;;;;;;;;;5027200;28;20466;-72
2023/07/16 12:02:54;;;;;;;1043.50;924.17;;;;;;;;;;5029038;28;20441;-71
2023/07/16 12:05:26;;;;;;;1032.68;902.67;;;;;;;;;;5025052;28;20435;-68
2023/07/16 12:08:14;;;;;;;1029.93;897.77;;;;;;;;;;5022929;28;20435;-71
2023/07/16 12:10:43;;;;;;;1033.18;901.78;;;;;;;;;;5027937;28;20435;-70
2023/07/16 12:13:13;;;;;;;1024.88;889.67;;;;;;;;;;5025273;28;20431;-69
2023/07/16 12:15:41;;;;;;;1026.07;892.88;;;;;;;;;;5019055;28;20439;-74
2023/07/16 12:18:08;;;;;;;1026.82;895.83;;;;;;;;;;5003558;28;20466;-67
2023/07/16 12:20:39;;;;;;;1027.40;892.47;;;;;;;;;;5022130;28;20427;-68
2023/07/16 12:23:06;;;;;;;1011.47;873.47;;;;;;;;;;5026196;28;20474;-71
2023/07/16 12:25:34;;;;;;;999.60;858.92;;;;;;;;;;5024665;28;20431;-71
2023/07/16 12:28:02;;;;;;;1004.83;858.45;;;;;;;;;;5024287;28;20437;-72
2023/07/16 12:30:37;;;;;;;1006.15;860.70;;;;;;;;;;5021922;28;20437;-71
2023/07/16 12:33:05;;;;;;;1001.50;855.50;;;;;;;;;;5030632;28;20987;-72
2023/07/16 12:35:32;;;;;;;1020.45;878.47;;;;;;;;;;5026415;28;20579;-71
2023/07/16 12:37:59;;;;;;;1027.22;895.58;;;;;;;;;;5021135;28;20435;-69
2023/07/16 12:40:28;;;;;;;1022.83;888.65;;;;;;;;;;5024913;28;21089;-69
2023/07/16 12:42:55;;;;;;;1047.30;933.15;;;;;;;;;;5022845;28;20488;-70
2023/07/16 12:45:23;;;;;;;1060.70;943.73;;;;;;;;;;5025817;28;20517;-70
2023/07/16 12:47:52;;;;;;;1045.78;925.42;;;;;;;;;;5012868;28;20781;-70
2023/07/16 12:50:19;;;;;;;1026.65;903.90;;;;;;;;;;5021884;28;20431;-71
2023/07/16 12:52:47;;;;;;;1009.77;887.20;;;;;;;;;;5006935;28;20431;-72
2023/07/16 12:55:14;;;;;;;1014.45;894.40;;;;;;;;;;5017048;28;20450;-71
2023/07/16 12:57:45;;;;;;;1010.88;888.95;;;;;;;;;;5019464;28;20796;-71
2023/07/16 13:00:12;;;;;;;1002.55;888.55;;;;;;;;;;5024636;28;20418;-74
2023/07/16 13:02:40;;;;;;;997.35;883.13;;;;;;;;;;5025380;28;20470;-70
2023/07/16 13:05:13;;;;;;;992.40;873.63;;;;;;;;;;5002098;28;21347;-70
2023/07/16 13:07:43;;;;;;;998.10;879.25;;;;;;;;;;5006034;28;20490;-64
2023/07/16 13:10:10;;;;;;;988.20;861.75;;;;;;;;;;5023509;28;20435;-74
2023/07/16 13:12:50;;;;;;;982.13;845.42;;;;;;;;;;5021190;28;20700;-72
2023/07/16 13:15:17;;;;;;;975.03;831.75;;;;;;;;;;5024973;28;20434;-73
2023/07/16 13:17:44;;;;;;;976.47;835.03;;;;;;;;;;5025753;28;20558;-69
2023/07/16 13:20:11;;;;;;;977.35;835.67;;;;;;;;;;5026547;28;20423;-73
2023/07/16 13:22:39;;;;;;;995.45;860.33;;;;;;;;;;5021475;28;20516;-71
2023/07/16 13:25:06;;;;;;;990.95;856.95;;;;;;;;;;5025671;28;20426;-71
2023/07/16 13:27:36;;;;;;;990.55;855.90;;;;;;;;;;5025237;28;20458;-70
2023/07/16 13:30:04;;;;;;;982.83;844.42;;;;;;;;;;5022087;28;20435;-70
2023/07/16 13:32:31;;;;;;;979.08;839.85;;;;;;;;;;5023463;28;20439;-70
2023/07/16 13:34:58;;;;;;;1001.30;867.10;;;;;;;;;;5027217;28;20959;-75
2023/07/16 13:37:28;;;;;;;1001.22;862.80;;;;;;;;;;5025076;28;20826;-67
2023/07/16 13:39:55;;;;;;;986.13;849.83;;;;;;;;;;5024883;28;20464;-72
2023/07/16 13:42:22;;;;;;;1003.37;867.07;;;;;;;;;;5027635;28;20459;-71
2023/07/16 13:44:53;;;;;;;1003.30;868.95;;;;;;;;;;5026873;28;20437;-66
2023/07/16 13:47:21;;;;;;;998.88;863.05;;;;;;;;;;5027218;28;20439;-72
2023/07/16 13:49:48;;;;;;;1000.67;860.90;;;;;;;;;;5026262;28;20849;-71
2023/07/16 13:52:15;;;;;;;992.72;852.95;;;;;;;;;;5022526;28;20429;-70
2023/07/16 13:54:43;;;;;;;1030.32;908.30;;;;;;;;;;5026163;28;20438;-71
2023/07/16 13:57:12;;;;;;;1013.60;882.57;;;;;;;;;;5029052;28;20517;-72